x

West Dixon Entrance (46205) Wave Buoy

7:00am - Mon 21st Apr 2014 All times are PDT. -7 hours from GMT.

  • Sig Wave height 13.4ft
  • Peak Period 12s
  • Wind
    11mph, 13mph gusts
  • Sea Temp 45°f
  • Air Temp 44°f
  • Sea Pressure 1013.3mb
  • West Dixon Entrance
  • West Dixon Entrance

More Historic Weather Station data

Upgrade to MSW Pro to gain access to the past 30 days of data for over 8000 Wavebouys and Weather Stations around the globe.

Join Pro

Comparision Forecast

View Surf forecast
   
Mon 04/21 7:00am 13.5ft 12s 11 13 mph 1013.3mb 45f 44f
6:00am 14ft 11s 11 16 mph 1012.7mb 45f 44f
5:00am 12.5ft 12s 13 18 mph 1012.3mb 45f 44f
4:00am 13ft 12s 18 20 mph 1011.5mb 45f 44f
3:00am 12.5ft 11s 20 25 mph 1010.6mb 45f 44f
2:00am 13ft 13s 22 27 mph 1009.3mb 45f 44f
1:00am 12.5ft 12s 20 27 mph 1007.8mb 45f 44f
12:00am 12.5ft 12s 22 29 mph 1005.8mb 45f 42f
Sun 04/20 11:00pm 13.5ft 13s 16 22 mph 1004.5mb 45f 44f
10:00pm 14.5ft 12s 4 9 mph 1003.9mb 45f 43f
9:00pm 14.5ft 14s 20 25 mph 1002.6mb 45f 45f
8:00pm 15ft 13s 22 29 mph 1002.1mb 45f 45f
7:00pm 15ft 12s 25 31 mph 1002.2mb 45f 45f
6:00pm 15ft 13s 22 27 mph 1002.2mb 45f 46f
5:00pm 16.5ft 14s 22 29 mph 1002.1mb 45f 47f
4:00pm 15.5ft 14s 22 27 mph 1002.3mb 45f 47f
1:00pm 17.5ft 13s 29 34 mph 1002.4mb 45f 46f
12:00pm 19.5ft 14s 31 40 mph 1002.4mb 45f 45f
11:00am 17.5ft 14s 31 40 mph 1002.3mb 45f 45f
10:00am 18.5ft 14s 22 29 mph 1002.6mb 45f 46f
9:00am 17.5ft 14s 27 36 mph 1002.9mb 45f 45f
8:00am 18ft 13s 29 36 mph 1003.3mb 45f 44f
7:00am 19.5ft 14s 29 36 mph 1003.4mb 45f 46f
6:00am 18.5ft 15s 27 31 mph 1003.5mb 45f 46f
5:00am 19ft 14s 27 34 mph 1003.2mb 45f 46f
4:00am 18ft 14s 27 31 mph 1003mb 45f 46f
3:00am 19.5ft 14s 27 34 mph 1002.5mb 45f 45f
2:00am 20ft 12s 25 31 mph 1001.7mb 45f 46f
1:00am 21ft 13s 27 31 mph 1000.1mb 45f 46f
12:00am 21ft 16s 27 36 mph 998.3mb 45f 45f
Sat 04/19 11:00pm 22.5ft 14s 29 40 mph 996.1mb 45f 45f
10:00pm 22.5ft 16s 29 40 mph 994.1mb 45f 45f
9:00pm 21ft 12s 27 36 mph 991.5mb 45f 45f
8:00pm 21.5ft 12s 31 40 mph 988.2mb 45f 45f
7:00pm 19.5ft 11s 34 43 mph 986.3mb 45f 45f
6:00pm 19.5ft 12s 31 40 mph 986.6mb 45f 46f
5:00pm 19.5ft 12s 31 40 mph 986.5mb 45f 46f
4:00pm 19ft 13s 34 40 mph 986.1mb 45f 46f
3:00pm 17.5ft 12s 25 34 mph 986.4mb 45f 47f
2:00pm 20.5ft 14s 20 25 mph 986.9mb 45f 46f
1:00pm 21.5ft 13s 22 27 mph 986.8mb 45f 47f
12:00pm 22ft 12s 27 31 mph 986.8mb 45f 47f
11:00am 21.5ft 13s 31 38 mph 986.7mb 45f 45f
10:00am 22ft 11s 34 40 mph 987.3mb 45f 46f
9:00am 20ft 12s 31 43 mph 987.7mb 45f 45f
7:00am 18ft 11s 34 40 mph 988.4mb 45f 46f
4:00am  -   -  29
mph
991mb - 45f
3:00am 16.5ft 11s 31 38 mph 992.2mb 45f 45f
2:00am 16.5ft 10s 22 27 mph 993.6mb 45f 44f
1:00am 14ft 9s 25 29 mph 995.1mb 45f 44f
12:00am 11ft 9s 25 29 mph 996.3mb 45f 45f
Fri 04/18 11:00pm 10ft 8s 22 29 mph 997.8mb 45f 45f
10:00pm 10.5ft 8s 27 31 mph 998.2mb 45f 46f
9:00pm 10.5ft 8s 22 29 mph 999.5mb 45f 46f
8:00pm 10ft 8s 25 31 mph 1000.7mb 45f 47f
7:00pm 10ft 8s 27 36 mph 1001.8mb 45f 46f
6:00pm 9.5ft 7s 29 36 mph 1003.1mb 45f 46f
5:00pm 10ft 7s 27 36 mph 1004.1mb 45f 46f
4:00pm 9.5ft 6s 27 34 mph 1005.3mb 45f 45f
3:00pm 8.5ft 12s 27 36 mph 1006.1mb 45f 45f
2:00pm 9ft 6s 27 31 mph 1007mb 45f 45f
1:00pm 9ft 12s 27 34 mph 1007.7mb 45f 45f
12:00pm 8.5ft 13s 25 29 mph 1008.2mb 45f 45f
11:00am 8.5ft 12s 20 25 mph 1008.5mb 45f 45f
10:00am 9ft 13s 22 25 mph 1008.6mb 45f 45f
9:00am 9ft 9s 18 22 mph 1009mb 45f 44f
8:00am 9.5ft 13s 13 18 mph 1009.4mb 45f 44f
7:00am 10ft 9s 13 16 mph 1009.3mb 45f 44f
6:00am 10ft 10s 9 13 mph 1009.3mb 45f 44f
5:00am 10.5ft 10s 13 16 mph 1009.1mb 45f 44f
4:00am 10ft 10s 13 16 mph 1008.9mb 45f 44f
3:00am 11ft 11s 13 16 mph 1008.4mb 45f 44f
2:00am 10.5ft 11s 13 16 mph 1008.1mb 45f 44f
1:00am 10.5ft 11s 13 18 mph 1007.7mb 45f 44f
12:00am 13ft 10s 16 18 mph 1007.3mb 45f 44f
Thu 04/17 11:00pm 12.5ft 10s 20 25 mph 1006.8mb 45f 44f
10:00pm 13ft 11s 18 20 mph 1006.2mb 45f 44f
9:00pm 13ft 11s 20 27 mph 1005.4mb 45f 44f
8:00pm 14ft 10s 22 29 mph 1004.3mb 45f 45f
7:00pm 15.5ft 11s 22 29 mph 1003.4mb 45f 44f
6:00pm 14ft 9s 27 34 mph 1002.4mb 45f 44f
5:00pm 13.5ft 11s 27 31 mph 1001.4mb 45f 45f
4:00pm 14ft 10s 27
mph
1000.4mb 45f 45f